Time;durP1;ratioP1;P1;durP2;ratioP2;P2;SDS_P1;SDS_P2;PMS_P1;PMS_P2;Temp;Humidity;BMP_temperature;BMP_pressure;BME280_temperature;BME280_humidity;BME280_pressure;Samples;Min_cycle;Max_cycle;Signal;HPM_P1;HPM_P2
2023/02/19 00:56:00;;;;;;;38.40;29.48;;;12.40;71.00;;;;;;6244673;23;20059;-78
2023/02/19 00:58:26;;;;;;;40.70;29.95;;;12.40;71.20;;;;;;6244812;23;20044;-78
2023/02/19 01:00:52;;;;;;;34.63;27.58;;;12.40;71.60;;;;;;6245022;23;20003;-81
2023/02/19 01:03:17;;;;;;;36.80;29.15;;;12.40;71.50;;;;;;6245297;23;20024;-80
2023/02/19 01:05:43;;;;;;;39.42;28.23;;;12.40;71.40;;;;;;6245215;23;20382;-80
2023/02/19 01:08:09;;;;;;;40.10;28.08;;;12.40;71.40;;;;;;6245199;23;20346;-78
2023/02/19 01:10:34;;;;;;;35.90;28.33;;;12.30;71.50;;;;;;6244915;23;20353;-79
2023/02/19 01:13:00;;;;;;;34.35;27.00;;;12.30;71.60;;;;;;6245043;23;20004;-79
2023/02/19 01:15:26;;;;;;;36.55;28.42;;;12.30;71.70;;;;;;6245258;23;20106;-80
2023/02/19 01:17:51;;;;;;;33.13;27.80;;;12.40;71.60;;;;;;6245034;23;20000;-79
2023/02/19 01:20:17;;;;;;;35.03;26.20;;;12.30;71.80;;;;;;6245294;23;20003;-78
2023/02/19 01:22:43;;;;;;;31.90;25.30;;;12.30;71.80;;;;;;6244734;23;20058;-79
2023/02/19 01:25:09;;;;;;;32.55;26.27;;;12.20;71.80;;;;;;6244907;23;20430;-79
2023/02/19 01:27:34;;;;;;;27.95;22.95;;;12.30;71.80;;;;;;6244728;23;20000;-79
2023/02/19 01:30:00;;;;;;;27.30;22.45;;;12.30;71.50;;;;;;6245177;23;20015;-79
2023/02/19 01:32:26;;;;;;;31.23;23.48;;;12.30;71.60;;;;;;6245084;23;20004;-79
2023/02/19 01:34:51;;;;;;;26.38;21.55;;;12.20;71.40;;;;;;6244959;23;20004;-80
2023/02/19 01:37:17;;;;;;;25.52;21.45;;;12.20;71.40;;;;;;6245111;23;20371;-79
2023/02/19 01:39:42;;;;;;;28.48;21.52;;;12.20;71.60;;;;;;6244926;23;20023;-79
2023/02/19 01:42:15;;;;;;;28.35;20.95;;;12.10;71.40;;;;;;6244816;23;20420;-79
2023/02/19 01:44:46;;;;;;;28.30;20.83;;;12.10;71.30;;;;;;6244610;23;20004;-79
2023/02/19 01:47:16;;;;;;;27.27;21.20;;;12.20;71.50;;;;;;6244372;23;20000;-79
2023/02/19 01:49:55;;;;;;;27.55;20.67;;;12.20;71.20;;;;;;6244566;23;20062;-78
2023/02/19 01:52:29;;;;;;;27.23;20.98;;;12.10;71.20;;;;;;6244718;23;20007;-77
2023/02/19 01:54:56;;;;;;;26.42;21.80;;;12.10;71.60;;;;;;6279361;22;20026;-80
2023/02/19 01:57:29;;;;;;;26.02;21.00;;;12.10;71.20;;;;;;6306643;22;20248;-79
2023/02/19 02:00:02;;;;;;;29.30;21.90;;;12.10;72.00;;;;;;6306059;22;20485;-79
2023/02/19 02:02:28;;;;;;;25.85;21.42;;;12.20;71.50;;;;;;6306238;22;20006;-79
2023/02/19 02:04:57;;;;;;;28.65;22.58;;;12.10;71.30;;;;;;6306216;22;20079;-79
2023/02/19 02:10:19;;;;;;;30.08;22.77;;;12.00;72.00;;;;;;6306284;22;20021;-80
2023/02/19 02:12:45;;;;;;;28.25;23.42;;;12.10;72.20;;;;;;6306312;22;19995;-80
2023/02/19 02:15:11;;;;;;;28.35;24.05;;;12.00;72.00;;;;;;6306327;22;20064;-79
2023/02/19 02:17:46;;;;;;;31.15;25.13;;;12.10;72.30;;;;;;6305741;22;19999;-79
2023/02/19 02:20:33;;;;;;;33.70;24.48;;;12.10;72.60;;;;;;6306562;22;20000;-78
2023/02/19 02:23:20;;;;;;;29.08;23.70;;;12.10;72.80;;;;;;6306221;22;20075;-80
2023/02/19 02:25:58;;;;;;;33.53;24.75;;;12.10;73.00;;;;;;6306170;22;20019;-81
2023/02/19 02:28:35;;;;;;;29.88;24.15;;;12.10;73.20;;;;;;6305954;22;20102;-78
2023/02/19 02:31:27;;;;;;;34.63;24.40;;;12.10;73.10;;;;;;6307504;22;20060;-78
2023/02/19 02:34:18;;;;;;;32.47;24.83;;;12.20;73.40;;;;;;6308148;22;20078;-80
2023/02/19 02:36:48;;;;;;;30.08;23.95;;;12.20;73.80;;;;;;6308387;22;20031;-80
2023/02/19 02:39:18;;;;;;;29.77;23.65;;;12.20;73.80;;;;;;6308786;22;20378;-80
2023/02/19 02:42:26;;;;;;;28.30;23.60;;;12.20;73.90;;;;;;6308499;22;20033;-80
2023/02/19 02:44:39;;;;;;;23.60;18.67;;;12.30;74.20;;;;;;6307900;22;20429;-78
2023/02/19 02:47:39;;;;;;;32.10;24.40;;;12.30;74.00;;;;;;6308369;22;20241;-79
2023/02/19 02:50:04;;;;;;;29.92;24.77;;;12.30;74.20;;;;;;6307990;22;20018;-79
2023/02/19 02:55:17;;;;;;;28.48;24.90;;;12.20;74.70;;;;;;6308022;22;20026;-79
2023/02/19 02:57:42;;;;;;;35.28;27.02;;;12.20;75.00;;;;;;6307697;22;20106;-80
2023/02/19 03:00:09;;;;;;;35.50;26.75;;;12.10;75.20;;;;;;6308583;22;19999;-80
2023/02/19 03:02:36;;;;;;;34.10;27.50;;;12.20;75.40;;;;;;6307837;22;19999;-78
2023/02/19 03:08:13;;;;;;;32.80;27.65;;;12.10;76.00;;;;;;6308098;22;20056;-80
2023/02/19 03:10:50;;;;;;;37.30;28.23;;;12.00;75.80;;;;;;6308006;22;20010;-80
2023/02/19 03:21:44;;;;;;;38.60;29.00;;;12.00;76.00;;;;;;6307716;22;20065;-81
2023/02/19 03:26:59;;;;;;;37.47;27.95;;;12.00;76.30;;;;;;6307788;22;20121;-79
2023/02/19 03:29:28;;;;;;;33.42;25.55;;;12.00;76.20;;;;;;6307901;22;20011;-79
2023/02/19 03:32:17;;;;;;;34.70;28.23;;;12.10;76.40;;;;;;6307671;22;20000;-80
2023/02/19 03:34:46;;;;;;;33.92;26.58;;;12.10;76.90;;;;;;6307455;22;19999;-78
2023/02/19 03:37:28;;;;;;;33.28;26.48;;;12.10;76.50;;;;;;6307451;22;20002;-79
2023/02/19 03:39:54;;;;;;;36.38;27.50;;;12.10;77.40;;;;;;6307746;22;20029;-79
2023/02/19 03:42:36;;;;;;;35.20;27.10;;;12.10;76.60;;;;;;6307340;22;20351;-79
2023/02/19 03:45:08;;;;;;;31.08;26.92;;;12.10;77.60;;;;;;6307678;22;20026;-80
2023/02/19 03:47:44;;;;;;;33.08;26.42;;;12.00;76.80;;;;;;6307340;22;20006;-79
2023/02/19 03:50:16;;;;;;;30.70;25.95;;;12.10;77.60;;;;;;6307355;22;20094;-78
2023/02/19 03:52:52;;;;;;;35.67;27.65;;;12.10;76.80;;;;;;6307281;22;20044;-79
2023/02/19 03:55:36;;;;;;;34.80;25.75;;;12.10;77.00;;;;;;6307289;22;20019;-80
2023/02/19 03:58:16;;;;;;;36.70;27.23;;;12.20;78.00;;;;;;6307393;22;20189;-79
2023/02/19 04:01:00;;;;;;;32.67;26.23;;;12.20;77.90;;;;;;6307386;22;19999;-79
2023/02/19 04:03:58;;;;;;;29.33;24.70;;;12.20;77.60;;;;;;6307608;22;20005;-80
2023/02/19 04:06:29;;;;;;;32.20;25.13;;;12.20;78.50;;;;;;6307224;22;19999;-78
2023/02/19 04:08:59;;;;;;;30.33;23.58;;;12.20;77.40;;;;;;6307041;22;20084;-80
2023/02/19 04:11:27;;;;;;;28.27;24.58;;;12.20;77.90;;;;;;6306937;22;20452;-78
2023/02/19 04:14:02;;;;;;;30.08;23.95;;;12.30;77.80;;;;;;6307117;22;20009;-78
2023/02/19 04:16:30;;;;;;;30.63;24.98;;;12.30;78.70;;;;;;6307147;22;19999;-79
2023/02/19 04:19:01;;;;;;;29.50;24.70;;;12.30;78.20;;;;;;6306778;22;20310;-79
2023/02/19 04:21:29;;;;;;;32.63;24.67;;;12.30;78.30;;;;;;6307326;22;20070;-80
2023/02/19 04:24:08;;;;;;;32.78;25.63;;;12.30;78.40;;;;;;6307168;22;20078;-78
2023/02/19 04:26:34;;;;;;;34.80;26.50;;;12.30;78.60;;;;;;6307320;22;20375;-79
2023/02/19 04:29:00;;;;;;;30.05;26.05;;;12.30;78.50;;;;;;6279441;22;20050;-80
2023/02/19 04:31:28;;;;;;;34.20;26.10;;;12.30;78.70;;;;;;6306782;22;19995;-80
2023/02/19 04:33:54;;;;;;;31.52;26.33;;;12.20;78.70;;;;;;6307337;22;19999;-79
2023/02/19 04:36:20;;;;;;;34.42;26.42;;;12.30;78.90;;;;;;6307404;22;20003;-79
2023/02/19 04:38:46;;;;;;;31.77;25.50;;;12.20;78.60;;;;;;6307151;22;19999;-79
2023/02/19 04:41:11;;;;;;;33.17;25.45;;;12.20;78.90;;;;;;6307306;22;19996;-79
2023/02/19 04:43:37;;;;;;;32.53;25.42;;;12.20;78.80;;;;;;6306852;22;19999;-79
2023/02/19 04:46:03;;;;;;;35.55;27.70;;;12.20;79.00;;;;;;6306849;22;19999;-79
2023/02/19 04:48:29;;;;;;;34.42;26.55;;;12.30;79.10;;;;;;6307215;22;20018;-79
2023/02/19 04:50:54;;;;;;;34.95;25.35;;;12.20;79.20;;;;;;6306978;22;20390;-80
2023/02/19 04:53:20;;;;;;;31.13;26.25;;;12.20;79.40;;;;;;6306629;22;19999;-80
2023/02/19 04:55:47;;;;;;;33.67;26.25;;;12.20;79.30;;;;;;6306801;22;20507;-80
2023/02/19 04:58:13;;;;;;;35.00;27.75;;;12.20;79.60;;;;;;6306687;22;20012;-80
2023/02/19 05:00:39;;;;;;;34.03;27.00;;;12.20;79.60;;;;;;6306680;22;19987;-79
2023/02/19 05:03:05;;;;;;;35.35;28.17;;;12.20;80.20;;;;;;6306834;22;20045;-78
2023/02/19 05:05:30;;;;;;;36.65;28.65;;;12.20;80.30;;;;;;6306684;22;20007;-79
2023/02/19 05:07:56;;;;;;;34.65;27.55;;;12.20;80.10;;;;;;6307049;22;20154;-80
2023/02/19 05:10:22;;;;;;;35.90;29.13;;;12.10;80.00;;;;;;6306688;22;20300;-79
2023/02/19 05:12:48;;;;;;;32.67;27.90;;;12.10;79.80;;;;;;6306660;22;20014;-80
2023/02/19 05:15:13;;;;;;;36.53;27.45;;;12.10;79.90;;;;;;6306813;22;20082;-79
2023/02/19 05:17:39;;;;;;;36.45;27.48;;;12.10;79.90;;;;;;6306480;22;20122;-79
2023/02/19 05:20:05;;;;;;;35.80;28.30;;;12.10;80.00;;;;;;6306901;22;20006;-78
2023/02/19 05:22:31;;;;;;;36.97;27.73;;;12.10;80.20;;;;;;6308104;22;20003;-81
2023/02/19 05:24:56;;;;;;;37.72;29.63;;;12.10;80.00;;;;;;6285414;22;20007;-81
2023/02/19 05:27:22;;;;;;;40.03;29.30;;;12.10;80.00;;;;;;6310837;22;19995;-78
2023/02/19 05:29:48;;;;;;;36.28;30.67;;;12.00;79.70;;;;;;6306381;22;20012;-78
2023/02/19 05:32:13;;;;;;;39.72;30.83;;;12.10;79.90;;;;;;6306624;22;20002;-79
2023/02/19 05:34:39;;;;;;;37.33;29.83;;;12.10;79.80;;;;;;6306538;22;20430;-80
2023/02/19 05:37:05;;;;;;;40.80;29.67;;;12.00;79.40;;;;;;6306476;22;20368;-80
2023/02/19 05:39:30;;;;;;;38.03;29.20;;;12.00;79.40;;;;;;6307385;22;20077;-80
2023/02/19 05:41:56;;;;;;;36.13;29.23;;;12.00;79.40;;;;;;6307482;22;20337;-79
2023/02/19 05:44:22;;;;;;;32.20;28.02;;;12.00;79.20;;;;;;6307379;22;20003;-79
2023/02/19 05:46:48;;;;;;;36.85;29.20;;;12.10;79.00;;;;;;6307616;22;20035;-79
2023/02/19 05:49:13;;;;;;;39.30;30.25;;;12.10;78.80;;;;;;6306129;22;20015;-79
2023/02/19 05:51:39;;;;;;;34.65;30.05;;;12.00;78.80;;;;;;6306669;22;20467;-79
2023/02/19 05:54:05;;;;;;;37.33;30.33;;;12.00;78.50;;;;;;6306284;22;20026;-79
2023/02/19 05:56:39;;;;;;;38.60;30.23;;;12.10;78.60;;;;;;6305178;22;20006;-79
2023/02/19 05:59:07;;;;;;;36.20;31.00;;;12.10;78.90;;;;;;6305160;22;20052;-79
2023/02/19 06:01:34;;;;;;;40.22;30.17;;;12.00;78.50;;;;;;6305250;22;19996;-78
2023/02/19 06:04:00;;;;;;;37.28;31.55;;;12.10;78.70;;;;;;6305435;22;20003;-79
2023/02/19 06:06:26;;;;;;;36.22;30.13;;;12.10;78.50;;;;;;6306668;22;20071;-79
2023/02/19 06:08:52;;;;;;;35.70;29.25;;;12.00;78.40;;;;;;6306343;22;20026;-80
2023/02/19 06:11:18;;;;;;;35.10;29.05;;;12.00;78.50;;;;;;6306459;22;20022;-79
2023/02/19 06:13:44;;;;;;;38.72;30.92;;;12.00;78.30;;;;;;6306419;22;20010;-80
2023/02/19 06:16:10;;;;;;;38.50;29.10;;;12.00;78.60;;;;;;6306629;22;20000;-79
2023/02/19 06:18:39;;;;;;;37.65;29.17;;;12.00;78.40;;;;;;6306220;22;20010;-79
2023/02/19 06:21:07;;;;;;;35.97;30.42;;;12.10;78.50;;;;;;6306200;22;19999;-80
2023/02/19 06:23:33;;;;;;;36.67;29.08;;;12.10;78.20;;;;;;6306221;22;20019;-79
2023/02/19 06:26:10;;;;;;;37.22;29.50;;;12.10;78.20;;;;;;6306477;22;20014;-79
2023/02/19 06:28:36;;;;;;;34.35;30.02;;;12.10;78.70;;;;;;6306204;22;20003;-80
2023/02/19 06:31:03;;;;;;;35.58;30.38;;;12.10;78.10;;;;;;6306255;22;19999;-79
2023/02/19 06:33:29;;;;;;;38.13;30.90;;;12.00;77.90;;;;;;6306442;22;19999;-80
2023/02/19 06:35:58;;;;;;;40.25;31.02;;;12.00;77.80;;;;;;6306256;22;20049;-80
2023/02/19 06:38:25;;;;;;;38.85;29.95;;;12.00;78.40;;;;;;6306942;22;20417;-80
2023/02/19 06:40:51;;;;;;;33.80;28.42;;;11.90;77.70;;;;;;6306563;22;20503;-79
2023/02/19 06:43:16;;;;;;;36.88;30.08;;;11.90;77.80;;;;;;6306494;22;20150;-78
2023/02/19 06:45:42;;;;;;;37.38;29.70;;;11.90;77.80;;;;;;6305922;22;20025;-80
2023/02/19 06:48:08;;;;;;;39.78;30.33;;;11.90;77.70;;;;;;6306314;22;20030;-81
2023/02/19 06:50:33;;;;;;;36.88;29.52;;;11.90;77.90;;;;;;6306353;22;20004;-81
2023/02/19 06:52:59;;;;;;;43.38;33.03;;;11.80;78.00;;;;;;6306462;22;20385;-80
2023/02/19 06:55:25;;;;;;;38.50;29.65;;;11.90;77.80;;;;;;6253186;22;1248025;-79
2023/02/19 06:57:50;;;;;;;37.47;31.17;;;11.90;78.00;;;;;;6308029;22;20496;-81
2023/02/19 07:00:16;;;;;;;42.65;30.90;;;11.90;78.10;;;;;;6307849;22;20003;-81
2023/02/19 07:02:42;;;;;;;37.63;32.05;;;11.90;78.10;;;;;;6308558;22;20417;-80
2023/02/19 07:05:08;;;;;;;37.90;30.88;;;11.90;77.90;;;;;;6308403;22;20005;-80
2023/02/19 07:07:33;;;;;;;35.20;29.83;;;11.90;78.10;;;;;;6308009;22;20003;-80
2023/02/19 07:09:59;;;;;;;35.63;28.90;;;11.90;78.00;;;;;;6307549;22;20015;-80
2023/02/19 07:12:25;;;;;;;34.05;27.80;;;12.00;77.70;;;;;;6308170;22;20373;-81
2023/02/19 07:14:51;;;;;;;32.80;26.90;;;11.90;77.40;;;;;;6307663;22;20068;-79
2023/02/19 07:17:16;;;;;;;31.90;27.65;;;11.90;77.20;;;;;;6307527;22;20002;-80
2023/02/19 07:19:42;;;;;;;31.23;26.30;;;11.90;77.20;;;;;;6307947;22;20006;-80
2023/02/19 07:22:08;;;;;;;32.33;25.95;;;12.00;77.10;;;;;;6308232;22;20071;-80
2023/02/19 07:24:33;;;;;;;35.95;26.13;;;12.00;77.10;;;;;;6308088;22;20373;-80
2023/02/19 07:26:59;;;;;;;33.08;26.17;;;12.00;76.80;;;;;;6308417;22;19995;-81
2023/02/19 07:29:24;;;;;;;31.85;25.80;;;12.10;76.80;;;;;;6307994;22;20035;-80
2023/02/19 07:31:50;;;;;;;30.10;24.60;;;12.10;76.60;;;;;;6280582;22;20011;-80
2023/02/19 07:34:16;;;;;;;32.88;24.95;;;12.20;76.60;;;;;;6308094;22;20003;-81
2023/02/19 07:36:42;;;;;;;28.98;24.98;;;12.20;76.40;;;;;;6307816;22;20011;-80
2023/02/19 07:39:12;;;;;;;33.22;25.48;;;12.30;77.00;;;;;;6308114;22;20003;-79
2023/02/19 07:41:38;;;;;;;29.48;24.60;;;12.30;76.20;;;;;;6307878;22;20041;-81
2023/02/19 07:44:04;;;;;;;32.85;24.40;;;12.30;76.20;;;;;;6308236;22;19999;-81
2023/02/19 07:46:30;;;;;;;33.47;25.25;;;12.40;76.10;;;;;;6308100;22;20409;-80
2023/02/19 07:48:58;;;;;;;31.67;24.23;;;12.40;76.00;;;;;;6307868;22;20027;-80
2023/02/19 07:51:23;;;;;;;31.45;25.48;;;12.50;75.80;;;;;;6308056;22;20025;-79
2023/02/19 07:53:49;;;;;;;31.38;25.58;;;12.50;76.00;;;;;;6307820;22;20489;-80
2023/02/19 07:56:15;;;;;;;33.58;26.30;;;12.60;75.80;;;;;;6308252;22;20000;-80
2023/02/19 07:58:42;;;;;;;32.20;26.15;;;12.60;75.70;;;;;;6279923;22;20007;-81
2023/02/19 08:04:06;;;;;;;34.60;26.50;;;12.60;75.70;;;;;;6307554;22;20088;-80
2023/02/19 08:06:32;;;;;;;33.05;26.33;;;12.60;75.70;;;;;;6307270;22;20006;-81
2023/02/19 08:08:58;;;;;;;30.33;25.77;;;12.70;75.70;;;;;;6307396;22;20008;-80
2023/02/19 08:14:07;;;;;;;36.42;27.75;;;12.90;75.70;;;;;;6307370;22;20353;-80
2023/02/19 08:16:33;;;;;;;35.83;26.67;;;13.00;75.50;;;;;;6307744;22;19995;-81
2023/02/19 08:18:59;;;;;;;30.55;25.83;;;13.10;75.30;;;;;;6307084;22;20341;-80
2023/02/19 08:21:25;;;;;;;30.85;25.83;;;13.10;75.30;;;;;;6306957;22;20003;-80
2023/02/19 08:23:50;;;;;;;32.05;25.75;;;13.20;75.00;;;;;;6306824;22;20185;-80
2023/02/19 08:26:16;;;;;;;33.58;24.73;;;13.30;74.90;;;;;;6307033;22;20026;-81
2023/02/19 08:28:42;;;;;;;30.40;25.30;;;13.50;74.80;;;;;;6279476;22;20026;-80
2023/02/19 08:31:09;;;;;;;30.83;25.33;;;13.60;74.80;;;;;;6306617;22;19999;-81
2023/02/19 08:33:36;;;;;;;37.70;25.23;;;13.70;74.50;;;;;;6307439;22;19995;-83
2023/02/19 08:36:06;;;;;;;31.70;24.63;;;13.70;74.40;;;;;;6306885;22;19999;-83
2023/02/19 08:38:34;;;;;;;31.45;23.00;;;13.80;74.50;;;;;;6306971;22;20052;-79
2023/02/19 08:41:04;;;;;;;28.55;23.65;;;13.80;74.30;;;;;;6306830;22;20045;-79
2023/02/19 08:43:29;;;;;;;33.40;24.98;;;13.90;74.50;;;;;;6306890;22;20003;-80
2023/02/19 08:45:55;;;;;;;28.80;23.30;;;13.90;74.50;;;;;;6306985;22;20452;-77
2023/02/19 08:48:21;;;;;;;34.50;24.73;;;13.80;74.50;;;;;;6306910;22;20014;-77
2023/02/19 08:50:56;;;;;;;30.08;25.35;;;13.70;74.70;;;;;;6306694;22;20007;-77
2023/02/19 08:53:23;;;;;;;28.60;23.77;;;13.60;75.00;;;;;;6306695;22;20006;-77
2023/02/19 08:55:48;;;;;;;31.50;24.63;;;13.60;75.30;;;;;;6306396;22;20023;-77
2023/02/19 08:58:14;;;;;;;29.63;25.50;;;13.60;75.50;;;;;;6306732;22;20009;-75
2023/02/19 09:00:40;;;;;;;33.95;24.95;;;13.50;75.60;;;;;;6306677;22;20074;-76
2023/02/19 09:03:05;;;;;;;37.85;26.50;;;13.50;75.60;;;;;;6306747;22;20464;-74
2023/02/19 09:05:31;;;;;;;38.15;27.40;;;13.50;75.70;;;;;;6306332;22;20002;-79
2023/02/19 09:07:57;;;;;;;32.90;26.25;;;13.50;75.70;;;;;;6306793;22;20074;-77
2023/02/19 09:10:23;;;;;;;33.25;24.73;;;13.60;75.80;;;;;;6306489;22;20007;-73
2023/02/19 09:12:48;;;;;;;33.72;24.15;;;13.60;75.60;;;;;;6306418;22;20503;-79
2023/02/19 09:15:14;;;;;;;27.38;22.98;;;13.70;75.60;;;;;;6305848;22;19999;-77
2023/02/19 09:17:40;;;;;;;25.30;19.33;;;13.70;75.40;;;;;;6306317;22;19996;-77
2023/02/19 09:20:06;;;;;;;22.90;17.65;;;13.80;75.30;;;;;;6306165;22;20022;-73
2023/02/19 09:22:31;;;;;;;24.40;18.30;;;13.90;75.10;;;;;;6306418;22;19999;-76
2023/02/19 09:24:57;;;;;;;25.92;20.42;;;13.90;75.10;;;;;;6307456;22;20465;-77
2023/02/19 09:27:23;;;;;;;25.20;19.52;;;14.00;75.00;;;;;;6306570;22;20007;-75
2023/02/19 09:29:48;;;;;;;27.55;18.42;;;14.20;74.90;;;;;;6306435;22;20076;-76
2023/02/19 09:32:14;;;;;;;19.95;17.10;;;14.40;74.50;;;;;;6278933;22;20010;-77
2023/02/19 09:34:40;;;;;;;21.77;16.52;;;14.60;74.50;;;;;;6305728;22;20026;-76
2023/02/19 09:37:06;;;;;;;16.27;13.60;;;14.90;74.00;;;;;;6306304;22;20414;-73
2023/02/19 09:39:33;;;;;;;14.32;10.48;;;15.10;73.60;;;;;;6305567;22;19996;-72
2023/02/19 09:42:11;;;;;;;19.05;13.85;;;15.30;73.50;;;;;;6306159;22;19999;-73
2023/02/19 09:44:41;;;;;;;19.63;14.10;;;15.40;73.30;;;;;;6306319;22;20456;-74
2023/02/19 09:47:17;;;;;;;17.55;13.15;;;15.50;73.50;;;;;;6306130;22;19996;-73
2023/02/19 09:49:48;;;;;;;21.45;15.43;;;15.60;73.40;;;;;;6305317;22;20430;-75
2023/02/19 09:52:24;;;;;;;19.73;15.13;;;15.80;73.10;;;;;;6305753;22;20006;-73
2023/02/19 09:54:50;;;;;;;18.10;13.30;;;15.90;72.80;;;;;;6305834;22;20326;-74
2023/02/19 09:57:19;;;;;;;14.82;10.90;;;16.00;73.20;;;;;;6305598;22;20321;-81
2023/02/19 10:00:11;;;;;;;16.25;11.32;;;16.10;72.30;;;;;;6291916;22;20415;-74
2023/02/19 10:02:37;;;;;;;16.23;11.68;;;16.30;72.30;;;;;;6304117;22;20077;-75
2023/02/19 10:05:13;;;;;;;14.40;12.00;;;16.40;71.80;;;;;;6278898;22;20361;-73
2023/02/19 10:07:43;;;;;;;18.92;12.15;;;16.40;72.20;;;;;;6306101;22;20337;-74
2023/02/19 10:10:11;;;;;;;14.10;10.35;;;16.40;72.40;;;;;;6302200;22;20007;-74
2023/02/19 10:12:40;;;;;;;13.68;9.38;;;16.40;72.20;;;;;;6305515;22;20041;-74
2023/02/19 10:15:14;;;;;;;17.05;9.65;;;16.40;72.30;;;;;;6305847;22;19999;-74
2023/02/19 10:17:40;;;;;;;15.95;10.20;;;16.30;72.30;;;;;;6305399;22;19999;-72
2023/02/19 10:20:09;;;;;;;13.82;9.63;;;16.30;72.60;;;;;;6302571;22;20038;-76
2023/02/19 10:22:36;;;;;;;17.00;10.65;;;16.20;72.60;;;;;;6306553;22;20309;-76
2023/02/19 10:25:02;;;;;;;14.30;10.65;;;16.20;72.70;;;;;;6305898;22;20003;-73
2023/02/19 10:27:31;;;;;;;15.55;11.82;;;16.20;72.90;;;;;;6305581;22;20019;-73
2023/02/19 10:29:58;;;;;;;21.92;11.38;;;16.20;73.10;;;;;;6301710;22;20059;-75
2023/02/19 10:32:26;;;;;;;14.63;11.70;;;16.20;73.20;;;;;;6305848;22;20278;-73
2023/02/19 10:35:12;;;;;;;16.45;11.13;;;16.30;73.10;;;;;;6304793;22;20093;-73
2023/02/19 10:37:48;;;;;;;13.65;11.25;;;16.30;72.90;;;;;;6304667;22;19996;-74
2023/02/19 10:40:17;;;;;;;14.95;11.00;;;16.40;72.60;;;;;;6301657;22;20389;-73
2023/02/19 10:43:00;;;;;;;14.70;9.85;;;16.60;72.30;;;;;;6278494;22;20003;-70
2023/02/19 10:45:49;;;;;;;12.73;10.02;;;16.80;71.80;;;;;;6305712;22;20067;-75
2023/02/19 10:48:41;;;;;;;12.77;8.30;;;16.90;71.40;;;;;;6303229;22;20066;-74
2023/02/19 10:51:20;;;;;;;10.18;7.97;;;17.10;70.50;;;;;;6290508;22;20014;-74
2023/02/19 10:54:01;;;;;;;13.13;9.15;;;17.20;70.20;;;;;;6307133;22;20082;-75
2023/02/19 10:56:30;;;;;;;11.65;9.32;;;17.20;69.90;;;;;;6306988;22;20362;-72
2023/02/19 10:59:26;;;;;;;12.65;8.65;;;17.20;69.40;;;;;;6303377;22;20401;-74
2023/02/19 11:02:00;;;;;;;14.73;10.02;;;17.20;70.00;;;;;;6306771;22;20180;-72
2023/02/19 11:04:34;;;;;;;13.05;8.90;;;17.20;69.50;;;;;;6307138;22;20003;-72
2023/02/19 11:07:17;;;;;;;14.63;8.93;;;17.20;69.30;;;;;;6306931;22;19995;-74
2023/02/19 11:09:46;;;;;;;15.07;12.18;;;17.20;69.40;;;;;;6303069;22;20011;-71
2023/02/19 11:12:32;;;;;;;14.98;11.35;;;17.20;69.30;;;;;;6279736;22;19999;-72
2023/02/19 11:15:22;;;;;;;11.52;8.85;;;17.30;69.50;;;;;;6306851;22;20003;-76
2023/02/19 11:17:55;;;;;;;15.45;9.35;;;17.30;70.00;;;;;;6305986;22;20059;-75
2023/02/19 11:20:21;;;;;;;9.85;8.15;;;17.40;69.00;;;;;;6303928;22;20022;-75
2023/02/19 11:22:48;;;;;;;15.75;7.65;;;17.40;68.50;;;;;;6279506;22;20430;-73
2023/02/19 11:25:14;;;;;;;10.85;7.70;;;17.40;68.50;;;;;;6306995;22;20006;-72
2023/02/19 11:28:01;;;;;;;10.07;7.30;;;17.50;68.40;;;;;;6306872;22;20004;-78
2023/02/19 11:30:29;;;;;;;13.10;7.60;;;17.60;68.10;;;;;;6301629;22;20041;-80
2023/02/19 11:33:23;;;;;;;10.93;8.52;;;17.60;68.00;;;;;;6307002;22;20045;-79
2023/02/19 11:36:24;;;;;;;11.52;8.52;;;17.60;68.70;;;;;;6306774;22;20007;-79
2023/02/19 11:38:50;;;;;;;10.95;6.93;;;17.60;68.70;;;;;;6276799;22;20456;-77
2023/02/19 11:41:47;;;;;;;9.60;6.45;;;17.70;68.10;;;;;;6306655;22;20003;-72
2023/02/19 11:44:38;;;;;;;10.68;6.47;;;17.70;68.50;;;;;;6306735;22;20010;-76
2023/02/19 11:47:31;;;;;;;10.02;7.20;;;17.60;68.80;;;;;;6306634;22;20010;-81
2023/02/19 11:50:19;;;;;;;10.13;6.10;;;17.50;68.80;;;;;;6303099;22;20340;-80
2023/02/19 11:53:03;;;;;;;8.98;5.80;;;17.50;68.70;;;;;;6306766;22;20373;-80
2023/02/19 11:55:55;;;;;;;9.90;6.72;;;17.40;68.60;;;;;;6307134;22;20062;-76
2023/02/19 11:58:48;;;;;;;9.02;6.28;;;17.50;68.50;;;;;;6257701;22;20061;-75
2023/02/19 12:01:17;;;;;;;11.70;6.75;;;17.50;69.00;;;;;;6306000;22;20341;-77
2023/02/19 12:04:07;;;;;;;8.52;5.82;;;17.50;69.10;;;;;;6306562;22;20000;-78
2023/02/19 12:07:10;;;;;;;10.38;5.82;;;17.50;69.10;;;;;;6306604;22;20010;-79
2023/02/19 12:09:36;;;;;;;12.48;5.78;;;17.40;69.50;;;;;;6303186;22;20344;-81
2023/02/19 12:12:47;;;;;;;8.23;5.18;;;17.40;71.90;;;;;;6307403;22;20099;-77
2023/02/19 12:15:44;;;;;;;10.27;5.70;;;17.30;74.30;;;;;;6182310;23;20017;-75
2023/02/19 12:18:22;;;;;;;8.93;5.50;;;17.20;69.30;;;;;;6179192;23;20440;-77
2023/02/19 12:21:22;;;;;;;11.00;5.25;;;17.20;70.60;;;;;;6281255;22;20011;-77
2023/02/19 12:24:18;;;;;;;11.57;5.03;;;17.10;70.20;;;;;;6290342;22;20086;-74
2023/02/19 12:27:18;;;;;;;10.70;5.30;;;17.30;71.00;;;;;;6306964;22;20487;-77
2023/02/19 12:30:01;;;;;;;9.68;5.28;;;17.30;70.20;;;;;;6302811;22;20026;-74
2023/02/19 12:32:53;;;;;;;8.30;5.10;;;17.40;70.30;;;;;;6307006;22;20002;-72
2023/02/19 12:35:42;;;;;;;11.00;6.18;;;17.50;70.00;;;;;;6248877;22;20011;-76
2023/02/19 12:38:32;;;;;;;7.78;5.38;;;17.50;69.00;;;;;;6305694;22;20007;-73
2023/02/19 12:41:18;;;;;;;10.77;5.80;;;17.50;69.60;;;;;;6305021;22;20078;-75
2023/02/19 12:43:57;;;;;;;8.68;4.88;;;17.60;69.90;;;;;;6307117;22;20062;-76
2023/02/19 12:46:29;;;;;;;9.50;4.80;;;17.70;69.50;;;;;;6306875;22;19999;-77
2023/02/19 12:49:09;;;;;;;7.60;4.90;;;17.90;70.40;;;;;;6303004;22;20060;-74
2023/02/19 12:51:43;;;;;;;7.53;4.90;;;18.20;67.90;;;;;;6307073;22;20086;-76
2023/02/19 12:54:27;;;;;;;7.72;4.90;;;18.30;67.30;;;;;;6307160;22;20057;-75
2023/02/19 12:57:01;;;;;;;8.32;4.45;;;18.20;67.20;;;;;;6307126;22;20372;-72
2023/02/19 12:59:40;;;;;;;8.82;4.70;;;18.00;66.90;;;;;;6301158;22;20308;-71
2023/02/19 13:02:21;;;;;;;6.70;3.67;;;17.80;66.90;;;;;;6306497;22;20278;-72
2023/02/19 13:05:02;;;;;;;9.45;4.13;;;17.70;67.00;;;;;;6306590;22;20003;-76
2023/02/19 13:07:42;;;;;;;7.40;4.25;;;17.60;67.30;;;;;;6306565;22;20022;-74
2023/02/19 13:10:32;;;;;;;6.53;4.32;;;17.60;67.40;;;;;;6301138;22;20007;-73
2023/02/19 13:13:04;;;;;;;8.77;4.30;;;17.50;67.30;;;;;;6306319;22;20088;-74
2023/02/19 13:15:40;;;;;;;9.57;4.75;;;17.60;67.00;;;;;;6306129;22;19999;-75
2023/02/19 13:18:17;;;;;;;7.43;4.75;;;17.60;67.00;;;;;;6304931;22;20448;-73
2023/02/19 13:20:45;;;;;;;7.20;4.53;;;17.70;66.80;;;;;;6302337;22;20049;-74
2023/02/19 13:26:51;;;;;;;6.28;4.28;;;18.00;67.20;;;;;;6305966;22;20018;-77
2023/02/19 13:29:40;;;;;;;9.13;4.57;;;18.00;66.50;;;;;;6252028;22;20023;-77
2023/02/19 13:32:27;;;;;;;7.68;4.18;;;17.90;66.50;;;;;;6305765;22;20009;-74
2023/02/19 13:35:14;;;;;;;6.30;4.57;;;18.00;66.90;;;;;;6278734;22;20011;-72
2023/02/19 13:37:40;;;;;;;9.60;4.63;;;18.00;66.60;;;;;;6306091;22;19999;-72
2023/02/19 13:40:18;;;;;;;7.53;4.50;;;18.00;66.50;;;;;;6301342;22;20027;-73
2023/02/19 13:42:53;;;;;;;7.55;4.10;;;18.10;66.60;;;;;;6306018;22;20091;-71
2023/02/19 13:45:26;;;;;;;6.45;3.63;;;18.10;66.40;;;;;;6305293;22;20075;-74
2023/02/19 13:47:56;;;;;;;5.38;3.60;;;18.00;66.10;;;;;;6304680;22;20433;-75
2023/02/19 13:50:31;;;;;;;8.45;4.50;;;17.90;66.20;;;;;;6301256;22;20141;-73
2023/02/19 13:52:58;;;;;;;7.57;4.22;;;17.90;66.60;;;;;;6305039;22;20030;-75
2023/02/19 13:55:49;;;;;;;8.55;4.40;;;18.00;67.40;;;;;;6305247;22;20062;-71
2023/02/19 13:58:38;;;;;;;10.05;4.55;;;18.10;67.20;;;;;;6303460;22;20004;-71
2023/02/19 14:01:07;;;;;;;9.70;4.70;;;18.10;67.30;;;;;;6302295;22;20440;-70
2023/02/19 14:03:42;;;;;;;6.57;4.07;;;18.10;67.30;;;;;;6305492;22;19996;-71
2023/02/19 14:06:08;;;;;;;6.90;4.20;;;18.10;67.10;;;;;;6305981;22;20088;-70
2023/02/19 14:08:48;;;;;;;8.20;3.88;;;18.20;66.90;;;;;;6303867;22;20003;-72
2023/02/19 14:11:14;;;;;;;11.82;4.13;;;18.10;66.60;;;;;;6304351;22;20498;-72
2023/02/19 14:13:49;;;;;;;6.60;4.00;;;18.20;66.30;;;;;;6305425;22;20004;-71
2023/02/19 14:16:32;;;;;;;9.30;3.83;;;18.10;66.60;;;;;;6306150;22;20003;-71
2023/02/19 14:18:57;;;;;;;11.00;3.90;;;18.10;66.40;;;;;;6301240;22;20084;-70